Covina, California
Current Conditions -  °F | °C
As of 2:47 PM on Saturday 20 Dec 2014 (Local Time) from KPOC Reporting Station
Clear Clear  
Wind Chill: 55°   Ceiling: Unl
Heat Index: 55°   Visibility: 10mi
Dew Point: 46°   Wind: 0mph
Humidity: 72%   Direction: NA
Pressure: 30.14"   Gusts: NA
Location:  34.09°N, 117.88°W
Report Text: KPOC 202247Z 00000KT 10SM SKC 13/08 A3014
Loading
Personal Weather Stations






























Interactive Weather Map New forecast layout! Learn more

10-Day Weather Forecast

Advertisements
Track Severe Weather on mobile